createdAt,value
2019-05-28T00:00:14.858Z,1002.47
2019-05-28T00:01:14.804Z,1002.49
2019-05-28T00:02:14.858Z,1002.43
2019-05-28T00:03:14.854Z,1002.45
2019-05-28T00:04:14.880Z,1002.46
2019-05-28T00:05:14.912Z,1002.45
2019-05-28T00:06:14.934Z,1002.45
2019-05-28T00:07:14.972Z,1002.41
2019-05-28T00:08:14.991Z,1002.45
2019-05-28T00:09:15.026Z,1002.43
2019-05-28T00:10:15.047Z,1002.44
2019-05-28T00:11:15.063Z,1002.41
2019-05-28T00:12:15.090Z,1002.40
2019-05-28T00:13:15.127Z,1002.42
2019-05-28T00:14:15.141Z,1002.44
2019-05-28T00:15:15.174Z,1002.40
2019-05-28T00:16:15.202Z,1002.42
2019-05-28T00:17:15.218Z,1002.42
2019-05-28T00:18:15.262Z,1002.44
2019-05-28T00:19:15.273Z,1002.41
2019-05-28T00:20:15.310Z,1002.39
2019-05-28T00:21:15.340Z,1002.37
2019-05-28T00:22:15.377Z,1002.33
2019-05-28T00:23:15.379Z,1002.33
2019-05-28T00:24:15.415Z,1002.37
2019-05-28T00:25:15.425Z,1002.33
2019-05-28T00:26:15.460Z,1002.30
2019-05-28T00:27:15.486Z,1002.29
2019-05-28T00:28:15.506Z,1002.25
2019-05-28T00:29:15.542Z,1002.26
2019-05-28T00:30:20.320Z,1002.26
2019-05-28T00:31:15.588Z,1002.24
2019-05-28T00:32:15.615Z,1002.22
2019-05-28T00:33:15.640Z,1002.20
2019-05-28T00:34:15.687Z,1002.22
2019-05-28T00:35:15.690Z,1002.18
2019-05-28T00:36:15.718Z,1002.20
2019-05-28T00:37:15.773Z,1002.20
2019-05-28T00:38:15.782Z,1002.20
2019-05-28T00:39:15.795Z,1002.19
2019-05-28T00:40:15.904Z,1002.17
2019-05-28T00:41:15.845Z,1002.17
2019-05-28T00:42:15.876Z,1002.18
2019-05-28T00:43:15.914Z,1002.19
2019-05-28T00:44:15.925Z,1002.25
2019-05-28T00:45:15.970Z,1002.25
2019-05-28T00:46:15.982Z,1002.28
2019-05-28T00:47:16.059Z,1002.30
2019-05-28T00:48:16.025Z,1002.29
2019-05-28T00:49:16.055Z,1002.27
2019-05-28T00:50:16.078Z,1002.28
2019-05-28T00:51:16.109Z,1002.25
2019-05-28T00:52:16.129Z,1002.25
2019-05-28T00:53:16.162Z,1002.24
2019-05-28T00:54:16.258Z,1002.19
2019-05-28T00:55:16.210Z,1002.20
2019-05-28T00:56:16.252Z,1002.14
2019-05-28T00:57:16.260Z,1002.14
2019-05-28T00:58:16.297Z,1002.13
2019-05-28T00:59:16.417Z,1002.11
2019-05-28T01:00:16.345Z,1002.12
2019-05-28T01:01:16.366Z,1002.10
2019-05-28T01:02:16.403Z,1002.10
2019-05-28T01:03:16.428Z,1002.10
2019-05-28T01:04:16.445Z,1002.07
2019-05-28T01:05:16.478Z,1002.09
2019-05-28T01:06:16.493Z,1002.12
2019-05-28T01:07:16.536Z,1002.12
2019-05-28T01:08:16.550Z,1002.08
2019-05-28T01:09:16.579Z,1002.10
2019-05-28T01:10:16.620Z,1002.11
2019-05-28T01:11:16.627Z,1002.10
2019-05-28T01:12:16.648Z,1002.08
2019-05-28T01:13:16.683Z,1002.03
2019-05-28T01:14:16.729Z,1002.02
2019-05-28T01:15:16.731Z,1002.01
2019-05-28T01:16:16.757Z,1001.99
2019-05-28T01:17:16.780Z,1002.04
2019-05-28T01:18:16.822Z,1002.02
2019-05-28T01:19:16.835Z,1002.01
2019-05-28T01:20:16.865Z,1002.02
2019-05-28T01:21:16.893Z,1002.00
2019-05-28T01:22:16.911Z,1002.02
2019-05-28T01:23:16.953Z,1002.01
2019-05-28T01:24:17.012Z,1001.97
2019-05-28T01:25:17.000Z,1001.96
2019-05-28T01:26:17.017Z,1001.94
2019-05-28T01:27:17.043Z,1001.97
2019-05-28T01:28:17.073Z,1001.98
2019-05-28T01:29:17.107Z,1001.96
2019-05-28T01:30:17.121Z,1001.99
2019-05-28T01:31:17.147Z,1002.02
2019-05-28T01:32:17.181Z,1002.01
2019-05-28T01:33:17.197Z,1002.02
2019-05-28T01:34:17.244Z,1002.04
2019-05-28T01:35:17.251Z,1002.02
2019-05-28T01:36:17.285Z,1002.03
2019-05-28T01:37:17.341Z,1002.02
2019-05-28T01:38:17.330Z,1002.00
2019-05-28T01:39:17.353Z,1002.04
2019-05-28T01:40:17.384Z,1002.02
2019-05-28T01:41:17.412Z,1002.02
2019-05-28T01:42:17.433Z,1002.04
2019-05-28T01:43:17.468Z,1002.01
2019-05-28T01:44:17.481Z,1001.99
2019-05-28T01:45:17.520Z,1002.04
2019-05-28T01:46:17.542Z,1002.02
2019-05-28T01:47:17.570Z,1002.01
2019-05-28T01:48:17.609Z,1002.02
2019-05-28T01:49:17.624Z,1002.05
2019-05-28T01:50:17.639Z,1002.02
2019-05-28T01:51:17.669Z,1002.01
2019-05-28T01:52:17.691Z,1001.98
2019-05-28T01:53:17.714Z,1002.05
2019-05-28T01:54:17.746Z,1002.05
2019-05-28T01:55:17.770Z,1002.03
2019-05-28T01:56:17.811Z,1002.02
2019-05-28T01:57:17.823Z,1002.07
2019-05-28T01:58:17.856Z,1002.04
2019-05-28T01:59:17.940Z,1002.09
2019-05-28T02:00:17.900Z,1002.04
2019-05-28T02:01:17.923Z,1002.09
2019-05-28T02:02:17.959Z,1002.08
2019-05-28T02:03:17.976Z,1002.10
2019-05-28T02:04:18.002Z,1002.08
2019-05-28T02:05:18.028Z,1002.08
2019-05-28T02:06:18.052Z,1002.10
2019-05-28T02:07:18.097Z,1002.07
2019-05-28T02:08:18.107Z,1002.05
2019-05-28T02:09:18.137Z,1002.08
2019-05-28T02:10:18.170Z,1002.10
2019-05-28T02:11:18.183Z,1002.14
2019-05-28T02:12:18.210Z,1002.12
2019-05-28T02:13:18.246Z,1002.13
2019-05-28T02:14:18.269Z,1002.15
2019-05-28T02:15:18.290Z,1002.13
2019-05-28T02:16:18.313Z,1002.13
2019-05-28T02:17:18.337Z,1002.15
2019-05-28T02:18:18.378Z,1002.12
2019-05-28T02:19:18.390Z,1002.14
2019-05-28T02:20:18.424Z,1002.14
2019-05-28T02:21:18.452Z,1002.15
2019-05-28T02:22:18.470Z,1002.13
2019-05-28T02:23:18.497Z,1002.13
2019-05-28T02:24:18.521Z,1002.14
2019-05-28T02:25:18.544Z,1002.14
2019-05-28T02:26:18.570Z,1002.15
2019-05-28T02:27:18.598Z,1002.14
2019-05-28T02:28:18.624Z,1002.12
2019-05-28T02:29:18.707Z,1002.10
2019-05-28T02:30:18.677Z,1002.10
2019-05-28T02:31:27.271Z,1002.12
2019-05-28T02:32:18.743Z,1002.12
2019-05-28T02:33:18.756Z,1002.09
2019-05-28T02:34:18.776Z,1002.11
2019-05-28T02:35:18.819Z,1002.12
2019-05-28T02:36:18.828Z,1002.13
2019-05-28T02:37:18.854Z,1002.12
2019-05-28T02:38:18.882Z,1002.10
2019-05-28T02:39:18.913Z,1002.12
2019-05-28T02:40:18.944Z,1002.09
2019-05-28T02:41:18.960Z,1002.12
2019-05-28T02:42:18.993Z,1002.13
2019-05-28T02:43:19.025Z,1002.12
2019-05-28T02:44:19.034Z,1002.10
2019-05-28T02:45:19.061Z,1002.11
2019-05-28T02:46:19.102Z,1002.17
2019-05-28T02:47:19.116Z,1002.16
2019-05-28T02:48:19.137Z,1002.16
2019-05-28T02:49:19.166Z,1002.13
2019-05-28T02:50:19.192Z,1002.10
2019-05-28T02:51:19.235Z,1002.16
2019-05-28T02:52:19.245Z,1002.16
2019-05-28T02:53:19.276Z,1002.13
2019-05-28T02:54:19.304Z,1002.17
2019-05-28T02:55:19.321Z,1002.17
2019-05-28T02:56:19.350Z,1002.16
2019-05-28T02:57:19.384Z,1002.16
2019-05-28T02:58:19.398Z,1002.17
2019-05-28T02:59:19.421Z,1002.14
2019-05-28T03:00:19.459Z,1002.15
2019-05-28T03:01:19.475Z,1002.12
2019-05-28T03:02:19.523Z,1002.16
2019-05-28T03:03:19.527Z,1002.13
2019-05-28T03:04:19.557Z,1002.16
2019-05-28T03:05:19.603Z,1002.12
2019-05-28T03:06:19.603Z,1002.13
2019-05-28T03:07:19.630Z,1002.13
2019-05-28T03:08:19.661Z,1002.12
2019-05-28T03:09:19.680Z,1002.15
2019-05-28T03:10:19.707Z,1002.15
2019-05-28T03:11:19.734Z,1002.19
2019-05-28T03:12:19.757Z,1002.17
2019-05-28T03:13:19.793Z,1002.14
2019-05-28T03:14:19.811Z,1002.17
2019-05-28T03:15:19.848Z,1002.14
2019-05-28T03:16:19.879Z,1002.19
2019-05-28T03:17:19.883Z,1002.15
2019-05-28T03:18:19.913Z,1002.13
2019-05-28T03:19:19.947Z,1002.15
2019-05-28T03:20:19.961Z,1002.12
2019-05-28T03:21:19.987Z,1002.16
2019-05-28T03:22:20.017Z,1002.15
2019-05-28T03:23:20.041Z,1002.14
2019-05-28T03:24:20.078Z,1002.14
2019-05-28T03:25:20.121Z,1002.16
2019-05-28T03:26:23.449Z,1002.19
2019-05-28T03:27:20.163Z,1002.16
2019-05-28T03:28:20.167Z,1002.15
2019-05-28T03:29:20.195Z,1002.18
2019-05-28T03:30:20.238Z,1002.19
2019-05-28T03:31:20.249Z,1002.16
2019-05-28T03:32:20.278Z,1002.16
2019-05-28T03:33:20.296Z,1002.18
2019-05-28T03:34:20.325Z,1002.17
2019-05-28T03:35:20.350Z,1002.17
2019-05-28T03:36:20.374Z,1002.18
2019-05-28T03:37:20.413Z,1002.20
2019-05-28T03:38:20.434Z,1002.19
2019-05-28T03:39:20.451Z,1002.19
2019-05-28T03:40:20.475Z,1002.18
2019-05-28T03:41:20.510Z,1002.16
2019-05-28T03:42:20.550Z,1002.17
2019-05-28T03:43:20.561Z,1002.14
2019-05-28T03:44:20.585Z,1002.16
2019-05-28T03:45:20.609Z,1002.17
2019-05-28T03:46:20.648Z,1002.12
2019-05-28T03:47:20.659Z,1002.19
2019-05-28T03:48:20.694Z,1002.18
2019-05-28T03:49:20.710Z,1002.15
2019-05-28T03:50:20.735Z,1002.18
2019-05-28T03:51:20.761Z,1002.17
2019-05-28T03:52:20.792Z,1002.14
2019-05-28T03:53:20.817Z,1002.16
2019-05-28T03:54:20.837Z,1002.14
2019-05-28T03:55:20.872Z,1002.13
2019-05-28T03:56:20.934Z,1002.16
2019-05-28T03:57:20.932Z,1002.11
2019-05-28T03:58:20.944Z,1002.14
2019-05-28T03:59:20.980Z,1002.13
2019-05-28T04:00:21.002Z,1002.19
2019-05-28T04:01:21.115Z,1002.15
2019-05-28T04:02:23.839Z,1002.18
2019-05-28T04:03:21.079Z,1002.16
2019-05-28T04:04:21.092Z,1002.15
2019-05-28T04:05:21.124Z,1002.15
2019-05-28T04:06:21.161Z,1002.16
2019-05-28T04:07:21.169Z,1002.15
2019-05-28T04:08:21.196Z,1002.19
2019-05-28T04:09:21.230Z,1002.20
2019-05-28T04:10:21.256Z,1002.21
2019-05-28T04:11:21.272Z,1002.17
2019-05-28T04:12:21.300Z,1002.21
2019-05-28T04:13:21.324Z,1002.15
2019-05-28T04:14:21.362Z,1002.17
2019-05-28T04:15:21.382Z,1002.16
2019-05-28T04:16:21.409Z,1002.14
2019-05-28T04:17:21.440Z,1002.14
2019-05-28T04:18:21.453Z,1002.14
2019-05-28T04:19:21.516Z,1002.13
2019-05-28T04:20:21.512Z,1002.17
2019-05-28T04:21:21.536Z,1002.13
2019-05-28T04:22:21.556Z,1002.20
2019-05-28T04:23:21.581Z,1002.19
2019-05-28T04:24:21.608Z,1002.23
2019-05-28T04:25:21.644Z,1002.21
2019-05-28T04:26:21.661Z,1002.24
2019-05-28T04:27:21.689Z,1002.19
2019-05-28T04:28:21.708Z,1002.19
2019-05-28T04:29:21.735Z,1002.19
2019-05-28T04:30:21.758Z,1002.19
2019-05-28T04:31:21.793Z,1002.25
2019-05-28T04:32:21.812Z,1002.21
2019-05-28T04:33:21.836Z,1002.21
2019-05-28T04:34:21.867Z,1002.24
2019-05-28T04:35:21.894Z,1002.24
2019-05-28T04:36:21.935Z,1002.23
2019-05-28T04:37:21.945Z,1002.25
2019-05-28T04:38:21.977Z,1002.21
2019-05-28T04:39:22.017Z,1002.20
2019-05-28T04:40:22.019Z,1002.19
2019-05-28T04:41:22.044Z,1002.21
2019-05-28T04:42:22.084Z,1002.19
2019-05-28T04:43:22.092Z,1002.21
2019-05-28T04:44:22.119Z,1002.23
2019-05-28T04:45:22.155Z,1002.20
2019-05-28T04:46:22.175Z,1002.20
2019-05-28T04:47:22.211Z,1002.19
2019-05-28T04:48:22.225Z,1002.20
2019-05-28T04:49:22.254Z,1002.18
2019-05-28T04:50:22.277Z,1002.16
2019-05-28T04:51:22.300Z,1002.16
2019-05-28T04:52:22.325Z,1002.17
2019-05-28T04:53:22.362Z,1002.14
2019-05-28T04:54:22.382Z,1002.16
2019-05-28T04:55:22.409Z,1002.21
2019-05-28T04:56:22.435Z,1002.24
2019-05-28T04:57:22.459Z,1002.18
2019-05-28T04:58:22.495Z,1002.18
2019-05-28T04:59:22.511Z,1002.19
2019-05-28T05:00:22.541Z,1002.17
2019-05-28T05:01:22.557Z,1002.21
2019-05-28T05:02:22.589Z,1002.17
2019-05-28T05:03:22.607Z,1002.18
2019-05-28T05:04:22.663Z,1002.21
2019-05-28T05:05:22.662Z,1002.19
2019-05-28T05:06:22.689Z,1002.18
2019-05-28T05:07:22.723Z,1002.20
2019-05-28T05:08:22.739Z,1002.20
2019-05-28T05:09:22.762Z,1002.18
2019-05-28T05:10:22.794Z,1002.22
2019-05-28T05:11:22.811Z,1002.14
2019-05-28T05:12:22.841Z,1002.17
2019-05-28T05:13:22.865Z,1002.19
2019-05-28T05:14:22.901Z,1002.20
2019-05-28T05:15:22.929Z,1002.15
2019-05-28T05:16:22.945Z,1002.18
2019-05-28T05:17:22.975Z,1002.20
2019-05-28T05:18:23.005Z,1002.22
2019-05-28T05:19:23.019Z,1002.19
2019-05-28T05:20:23.049Z,1002.21
2019-05-28T05:21:23.087Z,1002.18
2019-05-28T05:22:23.093Z,1002.20
2019-05-28T05:23:23.133Z,1002.17
2019-05-28T05:24:23.149Z,1002.18
2019-05-28T05:25:23.177Z,1002.19
2019-05-28T05:26:23.211Z,1002.17
2019-05-28T05:27:23.232Z,1002.17
2019-05-28T05:28:23.259Z,1002.17
2019-05-28T05:29:23.307Z,1002.16
2019-05-28T05:30:23.301Z,1002.18
2019-05-28T05:31:23.326Z,1002.20
2019-05-28T05:32:23.355Z,1002.19
2019-05-28T05:33:23.378Z,1002.17
2019-05-28T05:34:23.409Z,1002.18
2019-05-28T05:35:23.440Z,1002.17
2019-05-28T05:36:23.458Z,1002.19
2019-05-28T05:37:23.492Z,1002.18
2019-05-28T05:38:23.512Z,1002.20
2019-05-28T05:39:23.542Z,1002.16
2019-05-28T05:40:23.575Z,1002.17
2019-05-28T05:41:23.587Z,1002.19
2019-05-28T05:42:23.609Z,1002.18
2019-05-28T05:43:23.644Z,1002.20
2019-05-28T05:44:23.660Z,1002.22
2019-05-28T05:45:23.695Z,1002.23
2019-05-28T05:46:23.720Z,1002.21
2019-05-28T05:47:23.743Z,1002.24
2019-05-28T05:48:23.781Z,1002.25
2019-05-28T05:49:23.796Z,1002.22
2019-05-28T05:50:23.824Z,1002.23
2019-05-28T05:51:23.860Z,1002.24
2019-05-28T05:52:23.874Z,1002.27
2019-05-28T05:53:23.895Z,1002.22
2019-05-28T05:54:23.926Z,1002.25
2019-05-28T05:55:23.946Z,1002.26
2019-05-28T05:56:23.974Z,1002.26
2019-05-28T05:57:24.063Z,1002.26
2019-05-28T05:58:24.022Z,1002.31
2019-05-28T05:59:24.067Z,1002.28
2019-05-28T06:00:24.099Z,1002.28
2019-05-28T06:01:24.108Z,1002.34
2019-05-28T06:02:24.132Z,1002.32
2019-05-28T06:03:38.996Z,1002.37
2019-05-28T06:04:24.176Z,1002.35
2019-05-28T06:05:24.210Z,1002.33
2019-05-28T06:06:24.228Z,1002.36
2019-05-28T06:07:24.267Z,1002.37
2019-05-28T06:08:24.284Z,1002.38
2019-05-28T06:09:24.310Z,1002.36
2019-05-28T06:10:24.334Z,1002.34
2019-05-28T06:11:24.368Z,1002.34
2019-05-28T06:12:24.383Z,1002.38
2019-05-28T06:13:24.413Z,1002.40
2019-05-28T06:14:24.438Z,1002.36
2019-05-28T06:15:24.467Z,1002.36
2019-05-28T06:16:24.494Z,1002.36
2019-05-28T06:17:24.512Z,1002.38
2019-05-28T06:18:24.543Z,1002.42
2019-05-28T06:19:24.574Z,1002.42
2019-05-28T06:20:24.607Z,1002.41
2019-05-28T06:21:24.634Z,1002.43
2019-05-28T06:22:24.647Z,1002.41
2019-05-28T06:23:24.691Z,1002.42
2019-05-28T06:24:24.704Z,1002.38
2019-05-28T06:25:24.746Z,1002.37
2019-05-28T06:26:24.751Z,1002.37
2019-05-28T06:27:24.782Z,1002.39
2019-05-28T06:28:24.801Z,1002.39
2019-05-28T06:29:24.829Z,1002.42
2019-05-28T06:30:24.854Z,1002.43
2019-05-28T06:31:24.881Z,1002.46
2019-05-28T06:32:24.918Z,1002.40
2019-05-28T06:33:24.930Z,1002.40
2019-05-28T06:34:24.964Z,1002.39
2019-05-28T06:35:24.997Z,1002.36
2019-05-28T06:36:25.009Z,1002.39
2019-05-28T06:37:25.051Z,1002.38
2019-05-28T06:38:25.069Z,1002.32
2019-05-28T06:39:25.093Z,1002.35
2019-05-28T06:40:25.111Z,1002.34
2019-05-28T06:41:25.139Z,1002.30
2019-05-28T06:42:25.164Z,1002.34
2019-05-28T06:43:25.203Z,1002.37
2019-05-28T06:44:25.216Z,1002.36
2019-05-28T06:45:25.246Z,1002.32
2019-05-28T06:46:25.281Z,1002.33
2019-05-28T06:47:25.294Z,1002.34
2019-05-28T06:48:25.335Z,1002.38
2019-05-28T06:49:25.356Z,1002.37
2019-05-28T06:50:25.383Z,1002.33
2019-05-28T06:51:25.398Z,1002.37
2019-05-28T06:52:25.425Z,1002.31
2019-05-28T06:53:25.451Z,1002.38
2019-05-28T06:54:25.489Z,1002.39
2019-05-28T06:55:25.503Z,1002.40
2019-05-28T06:56:25.538Z,1002.36
2019-05-28T06:57:25.562Z,1002.37
2019-05-28T06:58:38.890Z,1002.39
2019-05-28T06:59:25.621Z,1002.41
2019-05-28T07:00:25.644Z,1002.44
2019-05-28T07:01:28.405Z,1002.42
2019-05-28T07:02:25.687Z,1002.43
2019-05-28T07:03:25.711Z,1002.48
2019-05-28T07:04:32.771Z,1002.46
2019-05-28T07:05:25.780Z,1002.48
2019-05-28T07:06:25.954Z,1002.49
2019-05-28T07:07:25.820Z,1002.53
2019-05-28T07:08:25.846Z,1002.53
2019-05-28T07:09:25.872Z,1002.55
2019-05-28T07:10:25.903Z,1002.57
2019-05-28T07:11:25.925Z,1002.58
2019-05-28T07:12:25.961Z,1002.59
2019-05-28T07:13:26.030Z,1002.60
2019-05-28T07:14:26.011Z,1002.58
2019-05-28T07:15:26.045Z,1002.59
2019-05-28T07:16:26.060Z,1002.58
2019-05-28T07:17:26.079Z,1002.57
2019-05-28T07:18:26.106Z,1002.60
2019-05-28T07:19:26.134Z,1002.63
2019-05-28T07:20:26.155Z,1002.63
2019-05-28T07:21:26.192Z,1002.66
2019-05-28T07:22:26.203Z,1002.64
2019-05-28T07:23:26.237Z,1002.63
2019-05-28T07:24:26.265Z,1002.64
2019-05-28T07:25:26.292Z,1002.66
2019-05-28T07:26:26.330Z,1002.63
2019-05-28T07:27:26.345Z,1002.64
2019-05-28T07:28:26.365Z,1002.66
2019-05-28T07:29:26.440Z,1002.67
2019-05-28T07:30:26.416Z,1002.70
2019-05-28T07:31:26.443Z,1002.66
2019-05-28T07:32:26.478Z,1002.72
2019-05-28T07:33:26.500Z,1002.69
2019-05-28T07:34:30.728Z,1002.71
2019-05-28T07:35:26.553Z,1002.71
2019-05-28T07:36:26.573Z,1002.68
2019-05-28T07:37:26.626Z,1002.72
2019-05-28T07:38:26.633Z,1002.74
2019-05-28T07:39:26.662Z,1002.75
2019-05-28T07:40:31.781Z,1002.74
2019-05-28T07:41:26.703Z,1002.76
2019-05-28T07:42:32.533Z,1002.80
2019-05-28T07:43:26.761Z,1002.80
2019-05-28T07:44:26.791Z,1002.78
2019-05-28T07:45:26.808Z,1002.77
2019-05-28T07:46:26.843Z,1002.80
2019-05-28T07:47:26.862Z,1002.78
2019-05-28T07:48:26.906Z,1002.79
2019-05-28T07:49:26.918Z,1002.83
2019-05-28T07:50:26.956Z,1002.79
2019-05-28T07:51:26.966Z,1002.82
2019-05-28T07:52:26.990Z,1002.85
2019-05-28T07:53:39.252Z,1002.80
2019-05-28T07:54:27.052Z,1002.80
2019-05-28T07:55:27.073Z,1002.83
2019-05-28T07:56:27.096Z,1002.85
2019-05-28T07:57:27.138Z,1002.83
2019-05-28T07:58:27.147Z,1002.84
2019-05-28T07:59:27.180Z,1002.83
2019-05-28T08:00:27.199Z,1002.83
2019-05-28T08:01:27.234Z,1002.85
2019-05-28T08:02:27.263Z,1002.87
2019-05-28T08:03:27.285Z,1002.87
2019-05-28T08:04:27.326Z,1002.89
2019-05-28T08:05:27.350Z,1002.88
2019-05-28T08:06:27.390Z,1002.86
2019-05-28T08:07:27.411Z,1002.88
2019-05-28T08:08:27.414Z,1002.84
2019-05-28T08:09:27.436Z,1002.84
2019-05-28T08:10:29.464Z,1002.82
2019-05-28T08:11:27.496Z,1002.84
2019-05-28T08:12:27.516Z,1002.86
2019-05-28T08:13:40.368Z,1002.87
2019-05-28T08:14:27.568Z,1002.89
2019-05-28T08:15:27.610Z,1002.94
2019-05-28T08:16:27.618Z,1002.93
2019-05-28T08:17:27.651Z,1002.92
2019-05-28T08:18:27.683Z,1002.94
2019-05-28T08:19:27.705Z,1002.88
2019-05-28T08:20:27.742Z,1002.94
2019-05-28T08:21:27.752Z,1002.86
2019-05-28T08:22:41.071Z,1002.87
2019-05-28T08:23:27.826Z,1002.87
2019-05-28T08:24:27.837Z,1002.91
2019-05-28T08:26:27.890Z,1002.91
2019-05-28T08:27:27.921Z,1002.91
2019-05-28T08:28:27.940Z,1002.93
2019-05-28T08:29:27.967Z,1002.83
2019-05-28T08:30:27.989Z,1002.84
2019-05-28T08:31:28.028Z,1002.84
2019-05-28T08:32:28.136Z,1002.81
2019-05-28T08:33:28.076Z,1002.80
2019-05-28T08:34:28.104Z,1002.80
2019-05-28T08:35:28.127Z,1002.80
2019-05-28T08:36:28.165Z,1002.84
2019-05-28T08:37:28.175Z,1002.84
2019-05-28T08:38:28.202Z,1002.82
2019-05-28T08:39:28.266Z,1002.85
2019-05-28T08:40:28.252Z,1002.83
2019-05-28T08:41:28.329Z,1002.87
2019-05-28T08:42:28.428Z,1002.86
2019-05-28T08:43:28.339Z,1002.87
2019-05-28T08:44:28.371Z,1002.88
2019-05-28T08:45:28.389Z,1002.87
2019-05-28T08:46:28.417Z,1002.90
2019-05-28T08:47:28.445Z,1002.88
2019-05-28T08:48:28.463Z,1002.85
2019-05-28T08:49:28.492Z,1002.90
2019-05-28T08:50:34.232Z,1002.88
2019-05-28T08:51:28.576Z,1002.94
2019-05-28T08:52:28.595Z,1002.94
2019-05-28T08:53:28.597Z,1002.92
2019-05-28T08:54:28.625Z,1002.94
2019-05-28T08:55:28.655Z,1002.92
2019-05-28T08:56:28.685Z,1002.93
2019-05-28T08:57:28.703Z,1002.89
2019-05-28T08:58:28.735Z,1002.94
2019-05-28T08:59:28.764Z,1002.92
2019-05-28T09:00:28.797Z,1002.95
2019-05-28T09:01:28.861Z,1002.96
2019-05-28T09:02:29.128Z,1002.95
2019-05-28T09:03:28.869Z,1002.96
2019-05-28T09:04:28.905Z,1002.96
2019-05-28T09:05:28.924Z,1002.97
2019-05-28T09:06:28.947Z,1002.99
2019-05-28T09:07:28.976Z,1003.01
2019-05-28T09:08:39.042Z,1003.03
2019-05-28T09:09:29.023Z,1003.03
2019-05-28T09:10:29.051Z,1003.03
2019-05-28T09:11:29.077Z,1002.97
2019-05-28T09:12:29.110Z,1002.97
2019-05-28T09:13:29.143Z,1003.04
2019-05-28T09:14:54.029Z,1003.04
2019-05-28T09:15:29.199Z,1003.03
2019-05-28T09:16:29.209Z,1003.08
2019-05-28T09:17:29.237Z,1003.04
2019-05-28T09:18:29.272Z,1003.03
2019-05-28T09:19:29.297Z,1003.05
2019-05-28T09:20:29.322Z,1003.05
2019-05-28T09:21:29.343Z,1003.07
2019-05-28T09:22:29.375Z,1003.03
2019-05-28T09:23:29.393Z,1003.05
2019-05-28T09:24:29.431Z,1003.06
2019-05-28T09:25:29.446Z,1003.06
2019-05-28T09:26:29.482Z,1003.11
2019-05-28T09:27:29.499Z,1003.13
2019-05-28T09:28:31.083Z,1003.14
2019-05-28T09:29:29.569Z,1003.16
2019-05-28T09:30:29.584Z,1003.16
2019-05-28T09:31:29.616Z,1003.17
2019-05-28T09:32:29.658Z,1003.18
2019-05-28T09:33:29.664Z,1003.18
2019-05-28T09:34:29.686Z,1003.17
2019-05-28T09:35:43.888Z,1003.17
2019-05-28T09:36:29.763Z,1003.16
2019-05-28T09:37:29.765Z,1003.20
2019-05-28T09:38:29.802Z,1003.20
2019-05-28T09:39:29.816Z,1003.17
2019-05-28T09:40:48.540Z,1003.24
2019-05-28T09:41:29.872Z,1003.20
2019-05-28T09:42:29.910Z,1003.24
2019-05-28T09:43:29.934Z,1003.24
2019-05-28T09:44:29.950Z,1003.21
2019-05-28T09:45:29.994Z,1003.23
2019-05-28T09:46:30.003Z,1003.23
2019-05-28T09:47:30.034Z,1003.25
2019-05-28T09:48:30.058Z,1003.26
2019-05-28T09:49:30.082Z,1003.24
2019-05-28T09:50:31.336Z,1003.22
2019-05-28T09:51:30.138Z,1003.23
2019-05-28T09:52:30.162Z,1003.24
2019-05-28T09:53:30.186Z,1003.23
2019-05-28T09:54:30.221Z,1003.24
2019-05-28T09:55:30.266Z,1003.23
2019-05-28T09:56:32.723Z,1003.20
2019-05-28T09:57:30.294Z,1003.19
2019-05-28T09:58:30.324Z,1003.16
2019-05-28T09:59:41.228Z,1003.16
2019-05-28T10:00:30.383Z,1003.19
2019-05-28T10:01:30.412Z,1003.19
2019-05-28T10:02:30.682Z,1003.18
2019-05-28T10:03:30.458Z,1003.15
2019-05-28T10:04:45.611Z,1003.15
2019-05-28T10:05:30.509Z,1003.16
2019-05-28T10:06:37.074Z,1003.17
2019-05-28T10:07:30.560Z,1003.18
2019-05-28T10:08:30.590Z,1003.13
2019-05-28T10:09:30.635Z,1003.20
2019-05-28T10:10:30.641Z,1003.20
2019-05-28T10:11:30.675Z,1003.19
2019-05-28T10:12:30.699Z,1003.16
2019-05-28T10:13:38.799Z,1003.18
2019-05-28T10:14:30.746Z,1003.17
2019-05-28T10:15:30.779Z,1003.20
2019-05-28T10:16:30.798Z,1003.15
2019-05-28T10:17:30.838Z,1003.18
2019-05-28T10:18:30.931Z,1003.18
2019-05-28T10:19:30.886Z,1003.20
2019-05-28T10:20:30.916Z,1003.30
2019-05-28T10:21:30.943Z,1003.28
2019-05-28T10:22:30.983Z,1003.23
2019-05-28T10:23:31.001Z,1003.29
2019-05-28T10:24:31.017Z,1003.30
2019-05-28T10:25:31.045Z,1003.25
2019-05-28T10:26:31.079Z,1003.24
2019-05-28T10:27:31.129Z,1003.29
2019-05-28T10:28:31.126Z,1003.28
2019-05-28T10:29:31.184Z,1003.25
2019-05-28T10:30:31.195Z,1003.26
2019-05-28T10:31:31.208Z,1003.30
2019-05-28T10:32:31.263Z,1003.31
2019-05-28T10:33:31.287Z,1003.31
2019-05-28T10:34:31.288Z,1003.36
2019-05-28T10:35:31.311Z,1003.37
2019-05-28T10:36:36.957Z,1003.34
2019-05-28T10:37:31.369Z,1003.39
2019-05-28T10:38:31.407Z,1003.35
2019-05-28T10:39:31.417Z,1003.34
2019-05-28T10:40:31.449Z,1003.35
2019-05-28T10:41:31.475Z,1003.33
2019-05-28T10:42:31.516Z,1003.32
2019-05-28T10:43:31.554Z,1003.29
2019-05-28T10:44:31.562Z,1003.28
2019-05-28T10:45:31.585Z,1003.26
2019-05-28T10:46:31.618Z,1003.27
2019-05-28T10:47:31.641Z,1003.28
2019-05-28T10:48:31.729Z,1003.30
2019-05-28T10:49:31.697Z,1003.37
2019-05-28T10:50:31.744Z,1003.31
2019-05-28T10:51:31.759Z,1003.26
2019-05-28T10:52:31.778Z,1003.19
2019-05-28T10:53:31.822Z,1003.25
2019-05-28T10:54:31.833Z,1003.33
2019-05-28T10:55:31.859Z,1003.35
2019-05-28T10:56:31.910Z,1003.28
2019-05-28T10:57:31.913Z,1003.27
2019-05-28T10:58:31.952Z,1003.30
2019-05-28T10:59:32.102Z,1003.35
2019-05-28T11:00:32.004Z,1003.33
2019-05-28T11:01:32.030Z,1003.31
2019-05-28T11:02:32.053Z,1003.28
2019-05-28T11:03:32.096Z,1003.32
2019-05-28T11:04:32.110Z,1003.31
2019-05-28T11:05:32.143Z,1003.33
2019-05-28T11:06:32.169Z,1003.38
2019-05-28T11:07:32.195Z,1003.39
2019-05-28T11:08:32.244Z,1003.36
2019-05-28T11:09:32.258Z,1003.29
2019-05-28T11:10:32.287Z,1003.32
2019-05-28T11:11:32.310Z,1003.29
2019-05-28T11:12:32.335Z,1003.26
2019-05-28T11:13:32.382Z,1003.28
2019-05-28T11:14:32.553Z,1003.26
2019-05-28T11:15:32.427Z,1003.28
2019-05-28T11:16:32.455Z,1003.26
2019-05-28T11:17:32.518Z,1003.26
2019-05-28T11:18:32.537Z,1003.26
2019-05-28T11:19:32.533Z,1003.26
2019-05-28T11:20:32.564Z,1003.30
2019-05-28T11:21:32.593Z,1003.25
2019-05-28T11:22:32.615Z,1003.28
2019-05-28T11:23:32.785Z,1003.22
2019-05-28T11:24:32.791Z,1003.19
2019-05-28T11:25:32.723Z,1003.23
2019-05-28T11:26:32.732Z,1003.22
2019-05-28T11:27:32.783Z,1003.21
2019-05-28T11:28:32.806Z,1003.18
2019-05-28T11:29:32.877Z,1003.18
2019-05-28T11:30:32.861Z,1003.18
2019-05-28T11:31:32.873Z,1003.19
2019-05-28T11:32:32.932Z,1003.21
2019-05-28T11:33:32.936Z,1003.21
2019-05-28T11:34:32.955Z,1003.16
2019-05-28T11:35:32.997Z,1003.22
2019-05-28T11:36:33.018Z,1003.19
2019-05-28T11:37:33.030Z,1003.14
2019-05-28T11:38:33.060Z,1003.13
2019-05-28T11:39:33.097Z,1003.21
2019-05-28T11:40:33.252Z,1003.21
2019-05-28T11:41:42.214Z,1003.20
2019-05-28T11:42:33.198Z,1003.22
2019-05-28T11:43:33.206Z,1003.24
2019-05-28T11:44:33.242Z,1003.22
2019-05-28T11:45:33.283Z,1003.21
2019-05-28T11:46:33.304Z,1003.25
2019-05-28T11:47:33.307Z,1003.24
2019-05-28T11:48:33.344Z,1003.24
2019-05-28T11:49:33.373Z,1003.22
2019-05-28T11:50:33.416Z,1003.20
2019-05-28T11:51:33.424Z,1003.26
2019-05-28T11:52:33.449Z,1003.28
2019-05-28T11:53:36.613Z,1003.27
2019-05-28T11:54:33.496Z,1003.28
2019-05-28T11:55:33.528Z,1003.28
2019-05-28T11:56:33.556Z,1003.29
2019-05-28T11:57:33.575Z,1003.33
2019-05-28T11:58:33.625Z,1003.28
2019-05-28T11:59:33.633Z,1003.32
2019-05-28T12:00:33.698Z,1003.26
2019-05-28T12:01:35.386Z,1003.29
2019-05-28T12:02:33.708Z,1003.35
2019-05-28T12:03:33.785Z,1003.31
2019-05-28T12:04:33.772Z,1003.30
2019-05-28T12:05:33.797Z,1003.28
2019-05-28T12:06:38.206Z,1003.30